createdAt,value
2019-04-29T00:06:01.690Z,101424.11
2019-04-29T00:09:02.015Z,101424.08
2019-04-29T00:11:33.195Z,101422.30
2019-04-29T00:14:09.127Z,101426.23
2019-04-29T00:18:02.553Z,101414.47
2019-04-29T00:20:50.966Z,101419.27
2019-04-29T00:23:21.276Z,101421.44
2019-04-29T00:26:02.063Z,101415.34
2019-04-29T00:29:23.282Z,101423.18
2019-04-29T00:32:49.292Z,101419.27
2019-04-29T00:36:48.247Z,101410.11
2019-04-29T00:39:51.008Z,101412.72
2019-04-29T00:42:45.902Z,101421.42
2019-04-29T00:46:02.856Z,101420.14
2019-04-29T00:48:32.968Z,101429.27
2019-04-29T00:51:03.412Z,101424.87
2019-04-29T00:53:44.667Z,101430.49
2019-04-29T00:56:15.047Z,101426.17
2019-04-29T00:58:45.118Z,101427.88
2019-04-29T01:01:30.232Z,101428.34
2019-04-29T01:04:00.432Z,101426.16
2019-04-29T01:06:30.838Z,101428.72
2019-04-29T01:12:31.329Z,101419.95
2019-04-29T01:15:32.842Z,101421.31
2019-04-29T01:18:02.947Z,101422.56
2019-04-29T01:20:36.427Z,101423.89
2019-04-29T01:23:19.689Z,101428.67
2019-04-29T01:25:53.246Z,101420.83
2019-04-29T01:28:40.048Z,101425.98
2019-04-29T01:31:10.348Z,101417.29
2019-04-29T01:33:40.384Z,101420.36
2019-04-29T01:36:44.870Z,101416.84
2019-04-29T01:39:16.370Z,101419.03
2019-04-29T01:42:18.315Z,101425.53
2019-04-29T01:45:03.275Z,101420.73
2019-04-29T01:51:29.177Z,101415.91
2019-04-29T01:53:59.671Z,101415.11
2019-04-29T01:56:30.318Z,101414.20
2019-04-29T01:59:00.442Z,101418.10
2019-04-29T02:01:30.893Z,101413.73
2019-04-29T02:04:01.239Z,101405.88
2019-04-29T02:06:31.362Z,101409.34
2019-04-29T02:09:01.580Z,101402.37
2019-04-29T02:11:31.734Z,101409.39
2019-04-29T02:14:19.406Z,101407.18
2019-04-29T02:16:49.646Z,101408.89
2019-04-29T02:19:21.506Z,101401.05
2019-04-29T02:26:47.691Z,101398.02
2019-04-29T02:29:32.632Z,101386.25
2019-04-29T02:36:21.994Z,101384.94
2019-04-29T02:39:24.152Z,101387.13
2019-04-29T02:42:01.518Z,101380.17
2019-04-29T02:44:36.510Z,101382.73
2019-04-29T02:47:06.755Z,101380.61
2019-04-29T02:49:36.881Z,101382.77
2019-04-29T02:52:07.055Z,101388.41
2019-04-29T02:54:37.199Z,101390.56
2019-04-29T02:57:55.155Z,101392.75
2019-04-29T03:01:03.459Z,101382.79
2019-04-29T03:03:42.610Z,101373.55
2019-04-29T03:06:12.971Z,101377.03
2019-04-29T03:08:43.086Z,101374.38
2019-04-29T03:11:14.646Z,101378.32
2019-04-29T03:13:44.834Z,101377.03
2019-04-29T03:16:21.585Z,101369.19
2019-04-29T03:18:56.781Z,101367.91
2019-04-29T03:21:46.777Z,101370.94
2019-04-29T03:24:17.018Z,101376.19
2019-04-29T03:26:53.154Z,101368.31
2019-04-29T03:29:23.308Z,101367.45
2019-04-29T03:31:54.730Z,101363.54
2019-04-29T03:34:25.343Z,101369.61
2019-04-29T03:36:56.092Z,101366.15
2019-04-29T03:39:26.319Z,101370.06
2019-04-29T03:41:56.853Z,101369.16
2019-04-29T03:44:32.860Z,101364.39
2019-04-29T03:46:59.946Z,101364.83
2019-04-29T03:49:29.986Z,101365.69
2019-04-29T03:52:00.027Z,101356.09
2019-04-29T03:54:36.530Z,101351.30
2019-04-29T03:57:20.919Z,101350.87
2019-04-29T03:59:51.245Z,101342.16
2019-04-29T04:02:30.962Z,101343.89
2019-04-29T04:05:22.767Z,101349.08
2019-04-29T04:08:03.801Z,101347.81
2019-04-29T04:10:51.216Z,101344.30
2019-04-29T04:13:24.541Z,101346.93
2019-04-29T04:15:55.130Z,101346.95
2019-04-29T04:18:30.735Z,101345.27
2019-04-29T04:21:01.241Z,101341.77
2019-04-29T04:23:31.957Z,101352.22
2019-04-29T04:30:11.436Z,101353.85
2019-04-29T04:32:42.291Z,101353.52
2019-04-29T04:35:13.358Z,101357.46
2019-04-29T04:38:29.622Z,101362.68
2019-04-29T04:41:49.333Z,101364.42
2019-04-29T04:44:20.030Z,101366.22
2019-04-29T04:46:50.350Z,101365.84
2019-04-29T04:49:20.873Z,101365.81
2019-04-29T04:51:50.927Z,101372.38
2019-04-29T04:54:44.813Z,101373.29
2019-04-29T04:57:03.449Z,101376.34
2019-04-29T04:59:37.846Z,101373.31
2019-04-29T05:02:07.966Z,101382.42
2019-04-29T05:04:45.247Z,101376.77
2019-04-29T05:07:23.779Z,101377.27
2019-04-29T05:09:56.250Z,101382.08
2019-04-29T05:12:26.375Z,101375.98
2019-04-29T05:15:07.227Z,101383.48
2019-04-29T05:17:40.176Z,101383.94
2019-04-29T05:20:14.726Z,101384.44
2019-04-29T05:23:28.484Z,101381.39
2019-04-29T05:25:36.379Z,101386.61
2019-04-29T05:28:06.969Z,101379.70
2019-04-29T05:30:37.047Z,101376.25
2019-04-29T05:33:15.789Z,101379.73
2019-04-29T05:36:02.117Z,101383.70
2019-04-29T05:38:41.434Z,101383.33
2019-04-29T05:41:15.273Z,101380.27
2019-04-29T05:43:51.324Z,101380.74
2019-04-29T05:46:36.142Z,101384.19
2019-04-29T05:49:43.525Z,101375.50
2019-04-29T05:52:34.720Z,101376.38
2019-04-29T05:55:15.453Z,101379.94
2019-04-29T05:57:46.800Z,101374.75
2019-04-29T06:00:18.773Z,101385.24
2019-04-29T06:02:54.567Z,101377.41
2019-04-29T06:05:22.068Z,101377.02
2019-04-29T06:07:56.129Z,101375.25
2019-04-29T06:10:26.408Z,101376.13
2019-04-29T06:12:57.641Z,101377.88
2019-04-29T06:15:28.378Z,101378.36
2019-04-29T06:17:58.460Z,101373.52
2019-04-29T06:20:35.323Z,101380.52
2019-04-29T06:23:11.124Z,101373.57
2019-04-29T06:25:38.506Z,101384.05
2019-04-29T06:28:09.048Z,101384.47
2019-04-29T06:30:40.748Z,101377.91
2019-04-29T06:33:24.370Z,101379.64
2019-04-29T06:35:56.958Z,101375.75
2019-04-29T06:38:26.809Z,101373.13
2019-04-29T06:40:56.303Z,101375.30
2019-04-29T06:43:28.903Z,101377.48
2019-04-29T06:45:58.486Z,101372.27
2019-04-29T06:48:28.527Z,101373.58
2019-04-29T06:50:58.541Z,101377.04
2019-04-29T06:53:28.975Z,101370.92
2019-04-29T06:55:59.026Z,101374.41
2019-04-29T06:58:32.629Z,101380.06
2019-04-29T07:01:03.123Z,101380.07
2019-04-29T07:03:33.381Z,101382.27
2019-04-29T07:06:03.353Z,101375.24
2019-04-29T07:08:34.087Z,101378.31
2019-04-29T07:11:04.359Z,101377.44
2019-04-29T07:13:34.774Z,101379.17
2019-04-29T07:16:04.914Z,101386.15
2019-04-29T07:18:34.946Z,101377.88
2019-04-29T07:21:07.596Z,101374.81
2019-04-29T07:23:37.158Z,101372.68
2019-04-29T07:26:07.195Z,101375.69
2019-04-29T07:28:37.622Z,101372.20
2019-04-29T07:31:10.114Z,101368.30
2019-04-29T07:33:39.409Z,101367.41
2019-04-29T07:36:11.365Z,101360.89
2019-04-29T07:38:42.074Z,101366.97
2019-04-29T07:41:14.237Z,101358.65
2019-04-29T07:43:45.254Z,101358.22
2019-04-29T07:46:49.269Z,101363.45
2019-04-29T07:49:06.500Z,101362.63
2019-04-29T07:51:39.545Z,101370.45
2019-04-29T07:54:11.149Z,101367.36
2019-04-29T07:56:42.281Z,101357.81
2019-04-29T07:59:12.391Z,101360.83
2019-04-29T08:01:42.484Z,101361.71
2019-04-29T08:04:12.826Z,101359.11
2019-04-29T08:06:44.894Z,101357.37
2019-04-29T08:09:15.497Z,101363.47
2019-04-29T08:11:46.106Z,101356.52
2019-04-29T08:14:17.432Z,101364.80
2019-04-29T08:16:47.898Z,101372.20
2019-04-29T08:19:17.967Z,101373.56
2019-04-29T08:21:49.718Z,101375.30
2019-04-29T08:24:19.849Z,101377.45
2019-04-29T08:26:49.990Z,101379.64
2019-04-29T08:29:20.082Z,101380.97
2019-04-29T08:31:51.986Z,101369.59
2019-04-29T08:34:23.187Z,101362.66
2019-04-29T08:36:53.680Z,101366.16
2019-04-29T08:39:25.013Z,101360.91
2019-04-29T08:41:58.831Z,101363.53
2019-04-29T08:44:47.406Z,101360.50
2019-04-29T08:47:30.429Z,101367.02
2019-04-29T08:49:55.483Z,101360.94
2019-04-29T08:52:26.075Z,101363.13
2019-04-29T08:54:57.334Z,101357.89
2019-04-29T08:57:27.427Z,101367.50
2019-04-29T08:59:57.508Z,101373.61
2019-04-29T09:02:35.134Z,101377.97
2019-04-29T09:04:59.358Z,101377.54
2019-04-29T09:07:29.458Z,101388.89
2019-04-29T09:10:01.845Z,101389.75
2019-04-29T09:12:31.588Z,101393.25
2019-04-29T09:15:01.926Z,101394.13
2019-04-29T09:17:32.039Z,101386.27
2019-04-29T09:20:02.075Z,101372.30
2019-04-29T09:22:33.811Z,101362.27
2019-04-29T09:25:30.605Z,101370.98
2019-04-29T09:28:02.544Z,101367.50
2019-04-29T09:30:32.584Z,101374.91
2019-04-29T09:33:02.985Z,101376.66
2019-04-29T09:35:33.760Z,101381.91
2019-04-29T09:38:05.319Z,101380.17
2019-04-29T09:40:39.546Z,101384.06
2019-04-29T09:43:32.910Z,101377.11
2019-04-29T09:46:12.966Z,101368.83
2019-04-29T09:48:43.299Z,101358.33
2019-04-29T09:51:17.644Z,101331.71
2019-04-29T09:53:45.100Z,101327.77
2019-04-29T09:56:15.168Z,101338.69
2019-04-29T09:58:45.229Z,101353.11
2019-04-29T10:01:41.108Z,101350.92
2019-04-29T10:04:26.561Z,101344.38
2019-04-29T10:06:58.455Z,101338.26
2019-04-29T10:09:28.912Z,101334.75
2019-04-29T10:11:59.688Z,101334.33
2019-04-29T10:14:29.824Z,101335.65
2019-04-29T10:17:20.584Z,101335.20
2019-04-29T10:20:07.742Z,101341.75
2019-04-29T10:22:36.623Z,101337.36
2019-04-29T10:25:07.338Z,101335.66
2019-04-29T10:27:38.410Z,101331.69
2019-04-29T10:30:09.195Z,101337.80
2019-04-29T10:32:42.535Z,101340.01
2019-04-29T10:35:11.217Z,101343.06
2019-04-29T10:37:41.288Z,101332.58
2019-04-29T10:40:31.580Z,101323.83
2019-04-29T10:43:17.260Z,101315.55
2019-04-29T10:46:03.769Z,101319.05
2019-04-29T10:48:45.087Z,101318.59
2019-04-29T10:51:16.190Z,101315.13
2019-04-29T10:53:46.615Z,101312.49
2019-04-29T10:56:18.823Z,101310.31
2019-04-29T10:58:48.885Z,101302.89
2019-04-29T11:02:26.363Z,101307.28
2019-04-29T11:05:02.683Z,101301.13
2019-04-29T11:07:36.975Z,101297.67
2019-04-29T11:10:24.815Z,101296.35
2019-04-29T11:12:46.292Z,101295.05
2019-04-29T11:15:17.475Z,101292.86
2019-04-29T11:17:47.615Z,101285.43
2019-04-29T11:20:21.248Z,101293.30
2019-04-29T11:22:59.021Z,101284.13
2019-04-29T11:25:51.656Z,101292.01
2019-04-29T11:28:34.248Z,101280.20
2019-04-29T11:31:04.490Z,101283.72
2019-04-29T11:33:41.689Z,101289.80
2019-04-29T11:36:13.911Z,101278.44
2019-04-29T11:38:44.222Z,101285.43
2019-04-29T11:41:20.069Z,101283.27
2019-04-29T11:43:50.493Z,101280.20
2019-04-29T11:46:20.989Z,101272.80
2019-04-29T11:48:52.758Z,101265.77
2019-04-29T11:51:48.535Z,101271.94
2019-04-29T11:54:12.392Z,101273.66
2019-04-29T11:56:41.834Z,101276.69
2019-04-29T11:59:20.079Z,101281.08
2019-04-29T12:02:01.875Z,101276.25
2019-04-29T12:04:42.305Z,101271.47
2019-04-29T12:07:12.987Z,101280.19
2019-04-29T12:09:43.716Z,101278.88
2019-04-29T12:12:14.974Z,101278.86
2019-04-29T12:15:00.869Z,101281.92
2019-04-29T12:18:02.396Z,101282.38
2019-04-29T12:20:41.335Z,101271.45
2019-04-29T12:23:15.720Z,101268.83
2019-04-29T12:25:43.593Z,101266.66
2019-04-29T12:28:18.902Z,101260.05
2019-04-29T12:30:44.143Z,101253.02
2019-04-29T12:33:17.535Z,101244.74
2019-04-29T12:36:16.409Z,101240.80
2019-04-29T12:39:04.864Z,101243.39
2019-04-29T12:41:51.677Z,101241.59
2019-04-29T12:44:35.460Z,101241.19
2019-04-29T12:47:05.865Z,101238.52
2019-04-29T12:49:33.825Z,101233.29
2019-04-29T12:52:02.036Z,101237.17
2019-04-29T12:54:30.297Z,101238.48
2019-04-29T12:56:58.256Z,101227.98
2019-04-29T12:59:26.209Z,101224.52
2019-04-29T13:02:19.887Z,101227.14
2019-04-29T13:05:04.549Z,101228.39
2019-04-29T13:08:01.409Z,101225.33
2019-04-29T13:10:44.269Z,101225.34
2019-04-29T13:13:15.651Z,101223.16
2019-04-29T13:16:10.652Z,101219.19
2019-04-29T13:19:12.246Z,101220.05
2019-04-29T13:21:39.337Z,101213.06
2019-04-29T13:24:21.682Z,101210.00
2019-04-29T13:26:42.241Z,101212.59
2019-04-29T13:29:09.487Z,101210.80
2019-04-29T13:31:39.012Z,101214.23
2019-04-29T13:34:23.809Z,101199.86
2019-04-29T13:36:39.144Z,101206.77
2019-04-29T13:39:08.049Z,101195.36
2019-04-29T13:41:55.586Z,101201.02
2019-04-29T13:44:07.517Z,101190.91
2019-04-29T13:46:58.338Z,101192.61
2019-04-29T13:49:49.105Z,101193.39
2019-04-29T13:52:15.632Z,101188.09
2019-04-29T13:54:44.286Z,101188.91
2019-04-29T13:57:16.202Z,101185.34
2019-04-29T14:00:13.847Z,101176.59
2019-04-29T14:02:58.924Z,101172.58
2019-04-29T14:05:17.662Z,101181.73
2019-04-29T14:07:48.644Z,101170.66
2019-04-29T14:10:17.066Z,101173.17
2019-04-29T14:12:51.132Z,101177.84
2019-04-29T14:15:15.846Z,101172.51
2019-04-29T14:17:44.206Z,101174.58
2019-04-29T14:20:21.775Z,101166.97
2019-04-29T14:22:52.036Z,101167.84
2019-04-29T14:25:19.083Z,101167.14
2019-04-29T14:27:46.990Z,101164.95
2019-04-29T14:30:16.993Z,101168.27
2019-04-29T14:32:49.805Z,101163.64
2019-04-29T14:35:49.975Z,101161.80
2019-04-29T14:38:18.720Z,101162.33
2019-04-29T14:41:02.819Z,101160.58
2019-04-29T14:43:40.981Z,101157.06
2019-04-29T14:46:24.699Z,101164.25
2019-04-29T14:48:59.505Z,101157.95
2019-04-29T14:51:28.456Z,101153.83
2019-04-29T14:54:01.298Z,101151.77
2019-04-29T14:56:27.584Z,101153.53
2019-04-29T14:59:06.532Z,101147.39
2019-04-29T15:01:33.613Z,101144.73
2019-04-29T15:04:18.041Z,101139.47
2019-04-29T15:06:38.422Z,101147.17
2019-04-29T15:09:16.970Z,101153.95
2019-04-29T15:11:51.758Z,101147.30
2019-04-29T15:14:35.145Z,101145.60
2019-04-29T15:17:14.361Z,101145.74
2019-04-29T15:20:11.890Z,101142.83
2019-04-29T15:22:41.369Z,101141.20
2019-04-29T15:25:11.010Z,101144.06
2019-04-29T15:27:39.347Z,101137.29
2019-04-29T15:30:08.739Z,101139.25
2019-04-29T15:32:40.263Z,101138.25
2019-04-29T15:35:09.700Z,101138.02
2019-04-29T15:37:40.069Z,101141.11
2019-04-29T15:40:09.831Z,101139.97
2019-04-29T15:42:42.294Z,101135.09
2019-04-29T15:45:18.229Z,101136.95
2019-04-29T15:47:48.689Z,101138.86
2019-04-29T15:50:19.095Z,101141.34
2019-04-29T15:52:51.244Z,101137.99
2019-04-29T15:55:19.859Z,101136.24
2019-04-29T15:57:50.277Z,101137.72
2019-04-29T16:00:23.027Z,101129.25
2019-04-29T16:02:50.270Z,101133.38
2019-04-29T16:05:34.670Z,101133.86
2019-04-29T16:08:32.698Z,101132.34
2019-04-29T16:11:21.140Z,101127.23
2019-04-29T16:14:08.295Z,101129.34
2019-04-29T16:16:23.069Z,101126.22
2019-04-29T16:18:53.451Z,101121.34
2019-04-29T16:21:24.066Z,101127.06
2019-04-29T16:23:57.521Z,101123.35
2019-04-29T16:26:30.182Z,101131.45
2019-04-29T16:29:12.489Z,101123.04
2019-04-29T16:31:33.636Z,101124.97
2019-04-29T16:34:02.453Z,101116.93
2019-04-29T16:36:33.261Z,101120.78
2019-04-29T16:39:02.564Z,101121.23
2019-04-29T16:42:01.508Z,101125.02
2019-04-29T16:44:36.052Z,101128.45
2019-04-29T16:49:43.196Z,101124.75
2019-04-29T16:52:12.598Z,101131.92
2019-04-29T16:54:41.492Z,101143.86
2019-04-29T16:57:10.728Z,101142.50
2019-04-29T16:59:39.717Z,101141.99
2019-04-29T17:02:10.198Z,101145.60
2019-04-29T17:04:43.077Z,101140.13
2019-04-29T17:07:14.035Z,101141.73
2019-04-29T17:10:01.540Z,101147.42
2019-04-29T17:12:37.902Z,101150.05
2019-04-29T17:15:23.009Z,101152.72
2019-04-29T17:17:37.671Z,101157.56
2019-04-29T17:20:07.014Z,101152.72
2019-04-29T17:22:42.767Z,101154.91
2019-04-29T17:25:08.347Z,101160.34
2019-04-29T17:27:59.717Z,101158.42
2019-04-29T17:30:46.299Z,101159.89
2019-04-29T17:33:27.545Z,101163.22
2019-04-29T17:35:14.348Z,101123.70
2019-04-29T17:35:50.791Z,101164.88
2019-04-29T17:38:20.113Z,101173.38
2019-04-29T17:40:51.120Z,101175.66
2019-04-29T17:43:43.067Z,101175.52
2019-04-29T17:46:38.085Z,101176.90
2019-04-29T17:49:13.781Z,101182.33
2019-04-29T17:51:43.140Z,101182.37
2019-04-29T17:54:15.808Z,101180.38
2019-04-29T17:57:28.699Z,101180.83
2019-04-29T18:00:11.058Z,101188.64
2019-04-29T18:03:00.876Z,101192.80
2019-04-29T18:05:54.843Z,101198.59
2019-04-29T18:08:23.470Z,101196.64
2019-04-29T18:10:55.607Z,101209.66
2019-04-29T18:13:26.495Z,101207.36
2019-04-29T18:16:01.584Z,101206.27
2019-04-29T18:18:45.432Z,101209.67
2019-04-29T18:21:21.698Z,101216.27
2019-04-29T18:24:08.404Z,101216.58
2019-04-29T18:26:44.226Z,101221.59
2019-04-29T18:29:16.760Z,101218.59
2019-04-29T18:31:46.597Z,101224.01
2019-04-29T18:34:15.706Z,101222.48
2019-04-29T18:36:45.838Z,101222.09
2019-04-29T18:39:20.158Z,101225.69
2019-04-29T18:42:09.132Z,101224.81
2019-04-29T18:49:37.169Z,101225.67
2019-04-29T18:52:07.763Z,101239.41
2019-04-29T18:54:57.291Z,101244.66
2019-04-29T18:57:30.508Z,101249.59
2019-04-29T19:04:16.138Z,101250.70
2019-04-29T19:06:41.689Z,101243.83
2019-04-29T19:09:18.022Z,101252.62
2019-04-29T19:11:41.556Z,101250.11
2019-04-29T19:14:38.315Z,101250.10
2019-04-29T19:17:10.983Z,101255.08
2019-04-29T19:19:39.787Z,101254.61
2019-04-29T19:22:09.504Z,101260.84
2019-04-29T19:24:38.514Z,101267.00
2019-04-29T19:27:15.853Z,101267.92
2019-04-29T19:29:58.425Z,101270.12
2019-04-29T19:32:34.805Z,101273.70
2019-04-29T19:35:04.373Z,101282.91
2019-04-29T19:41:23.834Z,101280.41
2019-04-29T19:43:55.102Z,101282.20
2019-04-29T19:47:15.185Z,101283.06
2019-04-29T19:49:44.720Z,101281.37
2019-04-29T19:52:19.061Z,101286.64
2019-04-29T19:54:45.258Z,101287.11
2019-04-29T19:57:14.938Z,101294.09
2019-04-29T20:03:57.372Z,101295.00
2019-04-29T20:06:30.053Z,101296.36
2019-04-29T20:09:01.399Z,101296.78
2019-04-29T20:11:32.691Z,101299.41
2019-04-29T20:14:04.794Z,101298.08
2019-04-29T20:17:09.552Z,101301.59
2019-04-29T20:19:45.905Z,101296.36
2019-04-29T20:22:16.142Z,101298.97
2019-04-29T20:24:49.657Z,101302.02
2019-04-29T20:27:16.718Z,101302.48
2019-04-29T20:29:45.831Z,101305.98
2019-04-29T20:32:16.328Z,101302.05
2019-04-29T20:34:45.827Z,101305.09
2019-04-29T20:37:36.737Z,101308.16
2019-04-29T20:40:50.789Z,101310.33
2019-04-29T20:43:35.873Z,101310.33
2019-04-29T20:46:04.663Z,101313.37
2019-04-29T20:48:32.829Z,101307.27
2019-04-29T20:51:10.620Z,101315.55
2019-04-29T20:53:46.141Z,101314.64
2019-04-29T20:56:23.972Z,101319.46
2019-04-29T20:58:46.700Z,101316.80
2019-04-29T21:01:29.201Z,101320.73
2019-04-29T21:03:57.454Z,101309.37
2019-04-29T21:06:25.537Z,101311.98
2019-04-29T21:08:55.106Z,101318.94
2019-04-29T21:11:39.133Z,101314.13
2019-04-29T21:15:01.239Z,101319.80
2019-04-29T21:17:31.976Z,101322.37
2019-04-29T21:19:59.971Z,101318.44
2019-04-29T21:22:35.657Z,101319.72
2019-04-29T21:25:04.118Z,101315.81
2019-04-29T21:27:43.059Z,101320.55
2019-04-29T21:30:14.302Z,101327.05
2019-04-29T21:32:42.770Z,101323.55
2019-04-29T21:35:25.003Z,101328.31
2019-04-29T21:38:26.036Z,101332.64
2019-04-29T21:41:05.150Z,101328.66
2019-04-29T21:43:35.483Z,101333.76
2019-04-29T21:46:05.740Z,101334.92
2019-04-29T21:48:37.433Z,101342.30
2019-04-29T21:51:06.761Z,101337.91
2019-04-29T21:54:22.420Z,101340.05
2019-04-29T21:57:46.041Z,101341.23
2019-04-29T22:00:19.688Z,101348.95
2019-04-29T22:03:09.860Z,101351.03
2019-04-29T22:05:49.286Z,101351.86
2019-04-29T22:08:20.708Z,101352.73
2019-04-29T22:11:36.133Z,101362.14
2019-04-29T22:14:09.870Z,101361.27
2019-04-29T22:17:07.460Z,101367.27
2019-04-29T22:19:36.981Z,101369.80
2019-04-29T22:22:06.774Z,101367.09
2019-04-29T22:24:39.448Z,101370.02
2019-04-29T22:27:08.346Z,101360.83
2019-04-29T22:29:38.959Z,101372.45
2019-04-29T22:32:14.422Z,101369.35
2019-04-29T22:35:10.963Z,101368.93
2019-04-29T22:37:34.669Z,101370.93
2019-04-29T22:40:07.208Z,101370.88
2019-04-29T22:42:43.452Z,101369.09
2019-04-29T22:45:21.381Z,101370.01
2019-04-29T22:48:14.269Z,101365.26
2019-04-29T22:50:38.077Z,101378.70
2019-04-29T22:53:07.305Z,101377.08
2019-04-29T22:55:50.210Z,101374.93
2019-04-29T22:58:21.609Z,101374.52
2019-04-29T23:00:52.294Z,101373.22
2019-04-29T23:03:20.265Z,101373.50
2019-04-29T23:05:52.824Z,101377.38
2019-04-29T23:08:53.850Z,101373.84
2019-04-29T23:11:21.799Z,101375.98
2019-04-29T23:14:49.186Z,101367.16
2019-04-29T23:17:17.125Z,101364.59
2019-04-29T23:20:42.944Z,101364.42
2019-04-29T23:26:27.402Z,101363.22
2019-04-29T23:28:59.397Z,101364.52
2019-04-29T23:31:27.233Z,101361.69
2019-04-29T23:33:56.484Z,101359.40
2019-04-29T23:36:27.470Z,101367.67
2019-04-29T23:39:41.044Z,101361.45
2019-04-29T23:42:12.306Z,101356.13
2019-04-29T23:44:42.393Z,101350.94
2019-04-29T23:47:10.438Z,101357.95
2019-04-29T23:49:47.055Z,101350.01
2019-04-29T23:52:31.770Z,101353.44
2019-04-29T23:54:55.981Z,101354.05
2019-04-29T23:57:36.989Z,101357.17
